createdAt,value
2018-04-07T00:02:21.460Z,0.43
2018-04-07T00:04:55.425Z,0.50
2018-04-07T00:07:29.183Z,0.40
2018-04-07T00:10:05.954Z,0.57
2018-04-07T00:12:39.334Z,0.50
2018-04-07T00:15:12.842Z,0.50
2018-04-07T00:17:44.044Z,0.30
2018-04-07T00:20:16.182Z,0.37
2018-04-07T00:22:46.837Z,0.50
2018-04-07T00:25:17.562Z,0.57
2018-04-07T00:27:48.815Z,0.63
2018-04-07T00:30:20.490Z,0.50
2018-04-07T00:32:53.064Z,0.53
2018-04-07T00:35:24.978Z,0.50
2018-04-07T00:40:51.449Z,0.53
2018-04-07T00:43:21.016Z,0.40
2018-04-07T00:45:51.027Z,0.40
2018-04-07T00:48:20.240Z,0.40
2018-04-07T00:50:49.404Z,0.60
2018-04-07T00:53:19.086Z,0.33
2018-04-07T00:55:49.195Z,0.40
2018-04-07T00:58:18.690Z,0.50
2018-04-07T01:00:48.508Z,0.50
2018-04-07T01:03:18.744Z,0.40
2018-04-07T01:05:49.462Z,0.50
2018-04-07T01:08:20.158Z,0.70
2018-04-07T01:10:51.307Z,0.47
2018-04-07T01:13:22.019Z,0.43
2018-04-07T01:15:54.113Z,0.40
2018-04-07T01:18:25.582Z,0.43
2018-04-07T01:20:56.949Z,0.33
2018-04-07T01:23:27.758Z,0.40
2018-04-07T01:25:59.523Z,0.30
2018-04-07T01:28:29.870Z,0.50
2018-04-07T01:31:02.834Z,0.40
2018-04-07T01:33:35.966Z,0.43
2018-04-07T01:36:09.610Z,0.40
2018-04-07T01:38:46.370Z,0.40
2018-04-07T01:41:16.246Z,0.60
2018-04-07T01:43:49.235Z,0.50
2018-04-07T01:46:22.382Z,0.40
2018-04-07T01:48:54.250Z,0.40
2018-04-07T01:51:25.905Z,0.40
2018-04-07T01:53:56.952Z,0.40
2018-04-07T01:56:29.781Z,0.50
2018-04-07T01:59:00.566Z,0.60
2018-04-07T02:01:31.264Z,0.50
2018-04-07T02:04:03.870Z,0.40
2018-04-07T02:06:35.349Z,0.53
2018-04-07T02:09:06.576Z,0.50
2018-04-07T02:11:36.870Z,0.70
2018-04-07T02:14:09.494Z,0.63
2018-04-07T02:16:41.724Z,0.40
2018-04-07T02:19:12.300Z,0.60
2018-04-07T02:21:42.763Z,0.53
2018-04-07T02:24:14.121Z,0.50
2018-04-07T02:26:44.355Z,0.60
2018-04-07T02:29:15.500Z,0.60
2018-04-07T02:31:47.510Z,0.47
2018-04-07T02:34:19.725Z,0.60
2018-04-07T02:36:54.354Z,0.30
2018-04-07T02:39:31.016Z,0.40
2018-04-07T02:42:07.693Z,0.40
2018-04-07T02:44:44.049Z,0.50
2018-04-07T02:47:15.333Z,0.30
2018-04-07T02:49:48.225Z,0.60
2018-04-07T02:52:23.118Z,0.40
2018-04-07T02:55:00.483Z,0.43
2018-04-07T02:57:37.014Z,0.40
2018-04-07T03:00:10.694Z,0.40
2018-04-07T03:02:42.265Z,0.70
2018-04-07T03:05:16.198Z,0.57
2018-04-07T03:07:48.135Z,0.60
2018-04-07T03:10:22.100Z,0.70
2018-04-07T03:12:52.895Z,0.90
2018-04-07T03:15:24.704Z,0.90
2018-04-07T03:17:58.481Z,0.70
2018-04-07T03:20:31.031Z,0.90
2018-04-07T03:23:01.768Z,1.00
2018-04-07T03:25:33.662Z,1.17
2018-04-07T03:28:04.913Z,0.70
2018-04-07T03:30:36.173Z,1.00
2018-04-07T03:33:07.350Z,0.63
2018-04-07T03:35:38.799Z,0.80
2018-04-07T03:38:09.023Z,1.00
2018-04-07T03:40:42.502Z,0.90
2018-04-07T03:43:15.797Z,0.97
2018-04-07T03:45:51.126Z,0.80
2018-04-07T03:48:23.689Z,0.80
2018-04-07T03:50:56.147Z,0.83
2018-04-07T03:53:26.628Z,1.10
2018-04-07T03:55:58.988Z,0.83
2018-04-07T03:58:31.566Z,1.00
2018-04-07T04:01:07.016Z,1.03
2018-04-07T04:03:39.100Z,0.90
2018-04-07T04:06:09.884Z,0.87
2018-04-07T04:08:40.723Z,0.90
2018-04-07T04:11:15.088Z,0.83
2018-04-07T04:13:51.619Z,1.00
2018-04-07T04:16:24.654Z,0.90
2018-04-07T04:18:57.069Z,0.93
2018-04-07T04:21:29.827Z,0.87
2018-04-07T04:24:02.615Z,0.70
2018-04-07T04:26:34.272Z,1.00
2018-04-07T04:29:05.458Z,1.00
2018-04-07T04:31:35.801Z,0.90
2018-04-07T04:34:06.232Z,0.80
2018-04-07T04:36:37.635Z,0.80
2018-04-07T04:39:07.716Z,0.90
2018-04-07T04:41:39.070Z,0.80
2018-04-07T04:44:09.196Z,1.00
2018-04-07T04:46:39.389Z,1.20
2018-04-07T04:49:09.552Z,0.80
2018-04-07T04:51:39.724Z,0.90
2018-04-07T04:54:11.762Z,0.80
2018-04-07T04:56:42.699Z,0.93
2018-04-07T04:59:15.337Z,1.00
2018-04-07T05:01:48.272Z,0.87
2018-04-07T05:04:19.724Z,0.80
2018-04-07T05:06:54.834Z,0.70
2018-04-07T05:09:28.196Z,0.80
2018-04-07T05:11:59.344Z,0.90
2018-04-07T05:14:32.558Z,0.93
2018-04-07T05:17:05.126Z,0.80
2018-04-07T05:19:36.242Z,0.77
2018-04-07T05:22:06.566Z,0.73
2018-04-07T05:24:36.589Z,0.80
2018-04-07T05:27:07.863Z,1.10
2018-04-07T05:29:38.194Z,1.00
2018-04-07T05:32:11.326Z,0.80
2018-04-07T05:34:45.655Z,0.80
2018-04-07T05:37:22.285Z,0.90
2018-04-07T05:39:54.237Z,0.97
2018-04-07T05:42:26.301Z,0.80
2018-04-07T05:44:57.313Z,1.00
2018-04-07T05:47:31.123Z,0.70
2018-04-07T05:50:02.070Z,1.00
2018-04-07T05:52:33.088Z,0.80
2018-04-07T05:55:06.855Z,0.90
2018-04-07T05:57:38.899Z,0.80
2018-04-07T06:00:09.801Z,0.83
2018-04-07T06:02:43.491Z,0.67
2018-04-07T06:05:16.652Z,0.80
2018-04-07T06:07:50.396Z,0.90
2018-04-07T06:10:21.598Z,0.70
2018-04-07T06:12:53.067Z,0.97
2018-04-07T06:15:23.735Z,1.20
2018-04-07T06:17:56.289Z,0.60
2018-04-07T06:20:29.191Z,0.70
2018-04-07T06:23:00.325Z,0.83
2018-04-07T06:25:31.632Z,0.90
2018-04-07T06:28:02.463Z,1.00
2018-04-07T06:30:34.469Z,1.00
2018-04-07T06:33:08.368Z,0.80
2018-04-07T06:35:42.929Z,0.70
2018-04-07T06:38:14.945Z,0.90
2018-04-07T06:40:47.853Z,0.90
2018-04-07T06:43:18.356Z,0.90
2018-04-07T06:45:49.221Z,0.90
2018-04-07T06:48:20.036Z,1.13
2018-04-07T06:50:51.552Z,0.80
2018-04-07T06:53:22.606Z,0.77
2018-04-07T06:55:54.007Z,0.80
2018-04-07T06:58:25.034Z,1.00
2018-04-07T07:00:55.438Z,0.90
2018-04-07T07:03:26.350Z,0.93
2018-04-07T07:05:57.100Z,0.90
2018-04-07T07:08:26.624Z,1.00
2018-04-07T07:10:57.081Z,1.00
2018-04-07T07:13:28.382Z,1.00
2018-04-07T07:15:58.826Z,1.00
2018-04-07T07:18:30.635Z,0.93
2018-04-07T07:21:02.213Z,1.00
2018-04-07T07:23:34.335Z,1.07
2018-04-07T07:26:05.379Z,1.03
2018-04-07T07:28:37.640Z,1.07
2018-04-07T07:31:08.793Z,1.10
2018-04-07T07:33:40.460Z,1.03
2018-04-07T07:36:12.644Z,0.80
2018-04-07T07:38:46.823Z,1.10
2018-04-07T07:41:23.038Z,1.00
2018-04-07T07:44:00.417Z,1.10
2018-04-07T07:46:32.272Z,1.20
2018-04-07T07:49:04.012Z,1.13
2018-04-07T07:51:34.995Z,1.07
2018-04-07T07:54:05.933Z,0.90
2018-04-07T07:56:36.220Z,1.10
2018-04-07T07:59:08.316Z,1.10
2018-04-07T08:01:41.577Z,1.30
2018-04-07T08:04:16.755Z,1.60
2018-04-07T08:06:47.789Z,1.40
2018-04-07T08:09:19.112Z,1.30
2018-04-07T08:11:51.688Z,1.20
2018-04-07T08:14:23.731Z,1.23
2018-04-07T08:16:54.971Z,1.20
2018-04-07T08:19:27.756Z,1.40
2018-04-07T08:21:58.951Z,1.20
2018-04-07T08:24:30.804Z,1.00
2018-04-07T08:27:04.470Z,1.10
2018-04-07T08:29:35.113Z,1.50
2018-04-07T08:32:06.352Z,1.13
2018-04-07T08:34:38.792Z,1.23
2018-04-07T08:37:14.829Z,1.33
2018-04-07T08:39:43.760Z,1.10
2018-04-07T08:42:16.670Z,1.20
2018-04-07T08:44:47.642Z,1.30
2018-04-07T08:47:19.165Z,1.10
2018-04-07T08:49:49.463Z,1.30
2018-04-07T08:52:19.563Z,1.13
2018-04-07T08:54:50.846Z,1.17
2018-04-07T08:57:21.597Z,1.33
2018-04-07T08:59:53.722Z,1.30
2018-04-07T09:02:26.978Z,1.17
2018-04-07T09:04:58.476Z,1.27
2018-04-07T09:07:30.010Z,1.30
2018-04-07T09:10:01.243Z,1.33
2018-04-07T09:12:31.928Z,1.30
2018-04-07T09:15:03.694Z,1.20
2018-04-07T09:17:34.940Z,1.03
2018-04-07T09:20:05.826Z,1.20
2018-04-07T09:22:36.240Z,1.60
2018-04-07T09:25:06.678Z,1.40
2018-04-07T09:27:36.648Z,1.30
2018-04-07T09:30:06.972Z,1.53
2018-04-07T09:32:39.427Z,1.37
2018-04-07T09:35:10.649Z,1.27
2018-04-07T09:37:40.942Z,1.37
2018-04-07T09:40:11.671Z,1.17
2018-04-07T09:42:42.490Z,1.20
2018-04-07T09:45:14.327Z,1.50
2018-04-07T09:47:45.665Z,1.20
2018-04-07T09:50:16.519Z,1.20
2018-04-07T09:52:46.898Z,1.20
2018-04-07T09:55:17.898Z,1.40
2018-04-07T09:57:48.100Z,1.23
2018-04-07T10:00:20.507Z,1.27
2018-04-07T10:02:56.292Z,1.50
2018-04-07T10:05:28.309Z,1.20
2018-04-07T10:08:01.571Z,1.30
2018-04-07T10:10:33.623Z,1.37
2018-04-07T10:13:04.931Z,1.50
2018-04-07T10:15:38.459Z,1.17
2018-04-07T10:18:09.519Z,1.47
2018-04-07T10:20:40.923Z,1.23
2018-04-07T10:23:12.454Z,1.40
2018-04-07T10:25:43.368Z,1.53
2018-04-07T10:28:14.484Z,1.33
2018-04-07T10:30:44.952Z,1.57
2018-04-07T10:33:15.071Z,1.60
2018-04-07T10:35:46.293Z,1.50
2018-04-07T10:38:17.314Z,1.50
2018-04-07T10:40:51.891Z,1.13
2018-04-07T10:43:23.259Z,1.60
2018-04-07T10:45:54.186Z,1.73
2018-04-07T10:48:24.527Z,1.87
2018-04-07T10:50:56.097Z,1.53
2018-04-07T10:53:26.876Z,1.57
2018-04-07T10:55:58.660Z,1.10
2018-04-07T10:58:30.406Z,1.23
2018-04-07T11:01:03.908Z,1.40
2018-04-07T11:03:34.882Z,1.57
2018-04-07T11:06:06.437Z,1.33
2018-04-07T11:08:37.574Z,1.60
2018-04-07T11:11:08.094Z,1.40
2018-04-07T11:13:39.376Z,1.23
2018-04-07T11:16:10.777Z,1.37
2018-04-07T11:18:43.165Z,1.40
2018-04-07T11:21:14.022Z,1.33
2018-04-07T11:23:44.013Z,1.30
2018-04-07T11:26:15.114Z,1.43
2018-04-07T11:28:45.325Z,1.43
2018-04-07T11:31:17.195Z,1.50
2018-04-07T11:33:47.685Z,1.30
2018-04-07T11:36:17.877Z,1.30
2018-04-07T11:38:48.859Z,1.50
2018-04-07T11:41:21.851Z,1.23
2018-04-07T11:43:52.724Z,1.10
2018-04-07T11:46:23.898Z,1.37
2018-04-07T11:48:56.189Z,1.33
2018-04-07T11:51:27.724Z,1.33
2018-04-07T11:53:58.516Z,1.20
2018-04-07T11:56:30.151Z,1.30
2018-04-07T11:59:00.416Z,1.40
2018-04-07T12:01:31.335Z,1.27
2018-04-07T12:04:02.115Z,1.33
2018-04-07T12:06:33.615Z,1.20
2018-04-07T12:09:04.708Z,1.30
2018-04-07T12:11:37.360Z,1.60
2018-04-07T12:14:08.086Z,0.93
2018-04-07T12:16:38.176Z,1.17
2018-04-07T12:19:08.320Z,1.27
2018-04-07T12:21:38.690Z,1.33
2018-04-07T12:24:09.720Z,1.20
2018-04-07T12:26:40.409Z,1.33
2018-04-07T12:29:11.266Z,1.10
2018-04-07T12:31:42.799Z,1.07
2018-04-07T12:34:13.555Z,1.17
2018-04-07T12:36:44.064Z,1.07
2018-04-07T12:39:14.628Z,1.50
2018-04-07T12:41:45.154Z,1.50
2018-04-07T12:44:16.317Z,1.20
2018-04-07T12:46:47.998Z,1.20
2018-04-07T12:49:19.059Z,1.00
2018-04-07T12:51:51.263Z,1.23
2018-04-07T12:54:21.296Z,1.40
2018-04-07T12:56:52.059Z,1.17
2018-04-07T12:59:23.059Z,1.30
2018-04-07T13:01:54.586Z,1.17
2018-04-07T13:04:25.394Z,1.20
2018-04-07T13:06:56.533Z,1.27
2018-04-07T13:09:27.754Z,1.40
2018-04-07T13:12:00.458Z,1.20
2018-04-07T13:14:30.830Z,1.23
2018-04-07T13:17:01.307Z,1.30
2018-04-07T13:19:32.837Z,1.30
2018-04-07T13:22:03.850Z,1.00
2018-04-07T13:24:35.055Z,1.00
2018-04-07T13:27:06.137Z,0.90
2018-04-07T13:29:37.699Z,1.10
2018-04-07T13:32:11.207Z,0.80
2018-04-07T13:34:42.888Z,0.90
2018-04-07T13:37:13.627Z,1.10
2018-04-07T13:39:43.716Z,0.83
2018-04-07T13:42:14.928Z,0.90
2018-04-07T13:44:44.404Z,0.90
2018-04-07T13:47:14.378Z,0.77
2018-04-07T13:49:45.522Z,0.50
2018-04-07T13:52:16.398Z,0.80
2018-04-07T13:54:47.518Z,0.77
2018-04-07T13:57:19.028Z,0.77
2018-04-07T13:59:52.415Z,0.60
2018-04-07T14:02:26.182Z,0.53
2018-04-07T14:04:56.405Z,0.80
2018-04-07T14:07:27.404Z,0.80
2018-04-07T14:09:59.086Z,0.80
2018-04-07T14:12:29.396Z,0.70
2018-04-07T14:14:59.749Z,0.60
2018-04-07T14:17:31.070Z,0.70
2018-04-07T14:20:01.583Z,0.77
2018-04-07T14:22:32.418Z,0.60
2018-04-07T14:25:03.314Z,0.50
2018-04-07T14:27:35.022Z,0.60
2018-04-07T14:30:05.450Z,0.60
2018-04-07T14:32:35.534Z,0.43
2018-04-07T14:35:06.872Z,0.50
2018-04-07T14:37:39.099Z,0.50
2018-04-07T14:40:12.919Z,0.50
2018-04-07T14:42:42.989Z,0.50
2018-04-07T14:45:13.888Z,0.40
2018-04-07T14:47:45.171Z,0.37
2018-04-07T14:50:15.549Z,0.60
2018-04-07T14:52:45.574Z,0.50
2018-04-07T14:55:16.889Z,0.33
2018-04-07T14:57:48.480Z,0.40
2018-04-07T15:00:18.758Z,0.40
2018-04-07T15:02:49.938Z,0.50
2018-04-07T15:05:22.499Z,0.33
2018-04-07T15:07:53.000Z,0.40
2018-04-07T15:10:25.029Z,0.50
2018-04-07T15:12:57.101Z,0.50
2018-04-07T15:15:30.877Z,0.50
2018-04-07T15:18:03.762Z,0.50
2018-04-07T15:20:35.337Z,0.50
2018-04-07T15:23:05.494Z,0.40
2018-04-07T15:25:38.941Z,0.40
2018-04-07T15:28:09.640Z,0.43
2018-04-07T15:30:39.974Z,0.37
2018-04-07T15:33:10.632Z,0.60
2018-04-07T15:35:40.824Z,0.50
2018-04-07T15:38:14.504Z,0.60
2018-04-07T15:40:51.796Z,0.50
2018-04-07T15:43:25.161Z,0.40
2018-04-07T15:45:57.105Z,0.30
2018-04-07T15:48:27.733Z,0.40
2018-04-07T15:50:58.849Z,0.43
2018-04-07T15:53:29.506Z,0.50
2018-04-07T15:55:59.513Z,0.57
2018-04-07T15:58:30.648Z,0.47
2018-04-07T16:01:02.770Z,0.50
2018-04-07T16:03:33.135Z,0.50
2018-04-07T16:06:03.430Z,0.40
2018-04-07T16:08:34.431Z,0.50
2018-04-07T16:11:05.375Z,0.40
2018-04-07T16:13:35.424Z,0.30
2018-04-07T16:16:05.463Z,0.40
2018-04-07T16:18:35.591Z,0.40
2018-04-07T16:21:06.428Z,0.57
2018-04-07T16:23:36.845Z,0.43
2018-04-07T16:26:06.785Z,0.60
2018-04-07T16:28:36.912Z,0.30
2018-04-07T16:31:06.923Z,0.40
2018-04-07T16:33:36.428Z,0.50
2018-04-07T16:36:06.273Z,0.40
2018-04-07T16:38:36.548Z,0.50
2018-04-07T16:41:06.652Z,0.40
2018-04-07T16:43:36.757Z,0.50
2018-04-07T16:46:06.715Z,0.40
2018-04-07T16:48:37.145Z,0.53
2018-04-07T16:51:07.126Z,0.80
2018-04-07T16:53:36.920Z,0.90
2018-04-07T16:56:06.983Z,1.17
2018-04-07T16:58:37.039Z,1.40
2018-04-07T17:01:06.641Z,1.50
2018-04-07T17:03:36.736Z,1.47
2018-04-07T17:06:06.533Z,1.47
2018-04-07T17:08:36.283Z,2.00
2018-04-07T17:11:06.487Z,1.70
2018-04-07T17:13:36.471Z,2.00
2018-04-07T17:16:06.702Z,1.53
2018-04-07T17:18:36.614Z,2.03
2018-04-07T17:21:06.846Z,2.07
2018-04-07T17:23:36.885Z,1.90
2018-04-07T17:26:07.248Z,2.17
2018-04-07T17:28:37.179Z,2.40
2018-04-07T17:31:06.975Z,2.30
2018-04-07T17:33:36.637Z,2.13
2018-04-07T17:36:06.632Z,1.97
2018-04-07T17:38:36.461Z,2.27
2018-04-07T17:41:06.370Z,2.50
2018-04-07T17:43:36.653Z,2.40
2018-04-07T17:46:06.021Z,2.40
2018-04-07T17:48:35.752Z,2.70
2018-04-07T17:51:05.412Z,2.80
2018-04-07T17:53:35.202Z,2.40
2018-04-07T17:56:04.861Z,2.60
2018-04-07T17:58:35.051Z,2.63
2018-04-07T18:01:05.084Z,2.70
2018-04-07T18:03:35.185Z,2.53
2018-04-07T18:06:05.321Z,2.70
2018-04-07T18:08:35.196Z,2.90
2018-04-07T18:11:05.263Z,2.90
2018-04-07T18:13:34.936Z,2.87
2018-04-07T18:16:04.676Z,3.00
2018-04-07T18:18:34.547Z,2.77
2018-04-07T18:21:05.241Z,2.67
2018-04-07T18:23:35.149Z,3.00
2018-04-07T18:26:05.047Z,3.27
2018-04-07T18:28:34.775Z,3.23
2018-04-07T18:31:05.003Z,2.97
2018-04-07T18:33:34.795Z,2.87
2018-04-07T18:36:04.824Z,2.77
2018-04-07T18:38:34.914Z,2.77
2018-04-07T18:41:04.693Z,2.70
2018-04-07T18:43:34.496Z,3.23
2018-04-07T18:46:04.852Z,3.17
2018-04-07T18:48:34.779Z,3.20
2018-04-07T18:51:04.737Z,3.07
2018-04-07T18:53:34.643Z,3.33
2018-04-07T18:56:04.375Z,2.83
2018-04-07T18:58:34.497Z,3.27
2018-04-07T19:01:04.373Z,3.40
2018-04-07T19:03:34.357Z,3.87
2018-04-07T19:06:04.232Z,3.90
2018-04-07T19:08:34.095Z,3.63
2018-04-07T19:11:03.608Z,3.50
2018-04-07T19:13:33.952Z,3.83
2018-04-07T19:16:03.879Z,3.90
2018-04-07T19:18:34.012Z,3.30
2018-04-07T19:21:03.727Z,4.00
2018-04-07T19:23:33.684Z,3.63
2018-04-07T19:26:04.555Z,3.63
2018-04-07T19:28:34.322Z,3.30
2018-04-07T19:31:04.097Z,3.27
2018-04-07T19:33:34.438Z,3.50
2018-04-07T19:36:04.264Z,3.10
2018-04-07T19:38:34.090Z,3.50
2018-04-07T19:41:03.966Z,3.53
2018-04-07T19:43:33.829Z,3.27
2018-04-07T19:46:03.687Z,3.30
2018-04-07T19:48:33.790Z,3.63
2018-04-07T19:51:03.978Z,3.20
2018-04-07T19:53:33.734Z,3.53
2018-04-07T19:56:03.340Z,3.47
2018-04-07T19:58:33.291Z,3.50
2018-04-07T20:01:03.436Z,3.30
2018-04-07T20:03:33.347Z,3.10
2018-04-07T20:06:03.486Z,2.93
2018-04-07T20:08:33.482Z,3.17
2018-04-07T20:11:03.611Z,2.90
2018-04-07T20:13:33.678Z,3.37
2018-04-07T20:16:03.977Z,3.00
2018-04-07T20:18:33.558Z,2.83
2018-04-07T20:21:03.571Z,3.00
2018-04-07T20:23:33.685Z,2.80
2018-04-07T20:26:03.938Z,2.93
2018-04-07T20:28:35.204Z,2.70
2018-04-07T20:31:05.338Z,2.80
2018-04-07T20:33:35.075Z,3.00
2018-04-07T20:36:04.932Z,2.77
2018-04-07T20:38:34.722Z,2.67
2018-04-07T20:41:04.393Z,2.17
2018-04-07T20:43:34.022Z,2.40
2018-04-07T20:46:03.436Z,2.40
2018-04-07T20:48:33.427Z,2.50
2018-04-07T20:51:03.144Z,2.50
2018-04-07T20:53:33.584Z,2.73
2018-04-07T20:56:03.272Z,2.53
2018-04-07T20:58:32.961Z,2.17
2018-04-07T21:01:02.647Z,2.30
2018-04-07T21:03:32.651Z,2.63
2018-04-07T21:06:04.194Z,2.50
2018-04-07T21:08:34.108Z,2.60
2018-04-07T21:11:05.194Z,2.43
2018-04-07T21:13:34.732Z,2.53
2018-04-07T21:16:04.586Z,2.60
2018-04-07T21:18:34.258Z,2.20
2018-04-07T21:21:04.175Z,2.47
2018-04-07T21:23:33.829Z,2.07
2018-04-07T21:26:03.517Z,2.60
2018-04-07T21:28:33.315Z,2.40
2018-04-07T21:31:03.465Z,2.40
2018-04-07T21:33:33.187Z,2.47
2018-04-07T21:36:03.289Z,2.60
2018-04-07T21:38:32.864Z,2.30
2018-04-07T21:41:02.558Z,2.33
2018-04-07T21:43:32.765Z,2.63
2018-04-07T21:46:03.147Z,2.40
2018-04-07T21:48:32.808Z,2.57
2018-04-07T21:51:02.837Z,2.10
2018-04-07T21:53:32.632Z,2.17
2018-04-07T21:56:01.942Z,2.13
2018-04-07T21:58:32.224Z,2.27
2018-04-07T22:01:01.784Z,2.20
2018-04-07T22:03:31.558Z,2.27
2018-04-07T22:06:01.469Z,2.13
2018-04-07T22:08:30.929Z,2.50
2018-04-07T22:11:00.254Z,1.93
2018-04-07T22:13:30.185Z,2.20
2018-04-07T22:15:59.967Z,2.30
2018-04-07T22:18:29.843Z,2.37
2018-04-07T22:20:59.505Z,2.10
2018-04-07T22:23:29.348Z,2.47
2018-04-07T22:25:59.050Z,1.90
2018-04-07T22:28:28.884Z,2.10
2018-04-07T22:30:58.446Z,2.10
2018-04-07T22:33:27.774Z,2.00
2018-04-07T22:35:57.162Z,2.20
2018-04-07T22:38:27.670Z,2.10
2018-04-07T22:40:57.574Z,1.90
2018-04-07T22:43:27.444Z,2.40
2018-04-07T22:45:57.052Z,2.00
2018-04-07T22:48:26.769Z,2.40
2018-04-07T22:50:56.710Z,1.93
2018-04-07T22:53:26.362Z,2.10
2018-04-07T22:55:56.060Z,1.87
2018-04-07T22:58:26.154Z,2.10
2018-04-07T23:00:56.000Z,2.70
2018-04-07T23:03:25.731Z,2.03
2018-04-07T23:05:56.382Z,1.60
2018-04-07T23:08:26.010Z,2.40
2018-04-07T23:10:55.760Z,2.07
2018-04-07T23:13:25.286Z,1.90
2018-04-07T23:15:54.989Z,2.17
2018-04-07T23:18:25.072Z,1.70
2018-04-07T23:20:54.929Z,1.90
2018-04-07T23:23:25.085Z,2.40
2018-04-07T23:25:54.655Z,1.83
2018-04-07T23:28:24.279Z,1.83
2018-04-07T23:30:54.188Z,1.87
2018-04-07T23:33:24.069Z,2.03
2018-04-07T23:35:53.929Z,2.20
2018-04-07T23:38:23.325Z,1.93
2018-04-07T23:40:53.539Z,1.83
2018-04-07T23:43:22.990Z,1.80
2018-04-07T23:45:52.986Z,1.90
2018-04-07T23:48:23.128Z,2.20
2018-04-07T23:50:52.920Z,2.10
2018-04-07T23:53:22.654Z,2.00
2018-04-07T23:55:52.456Z,1.60
2018-04-07T23:58:22.495Z,2.10
